Time;durP1;ratioP1;P1;durP2;ratioP2;P2;SDS_P1;SDS_P2;PMS_P1;PMS_P2;Temp;Humidity;BMP_temperature;BMP_pressure;BME280_temperature;BME280_humidity;BME280_pressure;Samples;Min_cycle;Max_cycle;Signal;HPM_P1;HPM_P2
2021/06/14 00:01:39;;;;;;;12.10;4.12;;;;;;;14.32;100.00;98790.79;1704095;83;21835;-73
2021/06/14 00:04:05;;;;;;;6.25;3.95;;;;;;;14.32;100.00;98804.59;1706928;83;20985;-73
2021/06/14 00:06:32;;;;;;;9.35;4.22;;;;;;;14.31;100.00;98805.75;1698684;83;20903;-73
2021/06/14 00:09:00;;;;;;;11.10;4.78;;;;;;;14.29;100.00;98806.69;1705244;83;21014;-73
2021/06/14 00:11:28;;;;;;;7.78;4.03;;;;;;;14.29;100.00;98812.80;1691144;83;21581;-73
2021/06/14 00:13:55;;;;;;;8.33;3.83;;;;;;;14.26;100.00;98810.17;1694932;83;21762;-73
2021/06/14 00:16:23;;;;;;;7.30;3.95;;;;;;;14.24;100.00;98811.11;1707750;83;20934;-73
2021/06/14 00:18:49;;;;;;;10.45;4.33;;;;;;;14.24;100.00;98803.40;1689258;83;21550;-72
2021/06/14 00:21:17;;;;;;;10.18;3.72;;;;;;;14.23;100.00;98805.36;1698647;83;21019;-73
2021/06/14 00:23:44;;;;;;;7.00;4.12;;;;;;;14.23;100.00;98803.98;1694978;83;21054;-73
2021/06/14 00:26:13;;;;;;;7.17;3.42;;;;;;;14.20;100.00;98801.36;1692288;83;21154;-73
2021/06/14 00:28:39;;;;;;;6.05;3.40;;;;;;;14.18;99.76;98803.67;1695133;83;20964;-73
2021/06/14 00:31:08;;;;;;;6.25;3.83;;;;;;;14.15;99.53;98802.20;1690061;83;21078;-73
2021/06/14 00:33:36;;;;;;;9.58;3.80;;;;;;;14.12;99.47;98812.58;1682371;83;21007;-73
2021/06/14 00:36:03;;;;;;;11.18;4.03;;;;;;;14.11;99.49;98810.98;1696621;83;20926;-73
2021/06/14 00:38:30;;;;;;;9.33;3.85;;;;;;;14.10;99.22;98813.52;1695673;83;21490;-73
2021/06/14 00:40:56;;;;;;;9.00;4.22;;;;;;;14.06;99.11;98823.08;1681373;83;21620;-73
2021/06/14 00:43:24;;;;;;;6.72;4.05;;;;;;;14.06;99.21;98830.56;1682720;83;21637;-73
2021/06/14 00:45:51;;;;;;;7.85;3.85;;;;;;;14.02;99.13;98830.47;1686108;83;21007;-73
2021/06/14 00:48:18;;;;;;;4.22;3.50;;;;;;;14.04;99.41;98828.73;1700283;83;21009;-73
2021/06/14 00:50:52;;;;;;;6.28;3.40;;;;;;;14.06;99.57;98818.14;1699920;83;21991;-73
2021/06/14 00:53:30;;;;;;;6.65;3.33;;;;;;;14.06;99.13;98816.19;1676961;84;21030;-73
2021/06/14 00:55:58;;;;;;;6.42;3.52;;;;;;;14.06;99.05;98816.77;1685332;83;20990;-73
2021/06/14 00:58:25;;;;;;;9.08;3.80;;;;;;;14.03;98.95;98811.37;1692181;83;20951;-73
2021/06/14 01:00:53;;;;;;;9.25;3.35;;;;;;;14.02;98.93;98813.11;1692088;83;20926;-73
2021/06/14 01:03:20;;;;;;;14.50;3.50;;;;;;;14.00;98.83;98804.39;1683252;83;21780;-73
2021/06/14 01:05:50;;;;;;;7.60;3.50;;;;;;;13.98;98.56;98808.88;1690024;83;20978;-73
2021/06/14 01:08:17;;;;;;;6.20;3.67;;;;;;;13.96;98.62;98802.92;1670656;83;21554;-73
2021/06/14 01:10:48;;;;;;;5.55;3.22;;;;;;;13.95;98.66;98804.66;1684790;83;21147;-73
2021/06/14 01:13:57;;;;;;;5.00;3.30;;;;;;;13.94;98.67;98794.77;1707410;83;20993;-72
2021/06/14 01:16:53;;;;;;;7.20;3.67;;;;;;;13.92;98.64;98805.36;1709039;83;21532;-73
2021/06/14 01:19:46;;;;;;;4.83;2.85;;;;;;;13.88;98.87;98806.08;1685021;83;21169;-73
2021/06/14 01:22:22;;;;;;;7.15;3.80;;;;;;;13.85;98.80;98811.53;1704734;83;20941;-73
2021/06/14 01:25:17;;;;;;;11.93;3.83;;;;;;;13.84;98.89;98807.17;1698270;83;21556;-73
2021/06/14 01:27:47;;;;;;;6.40;3.60;;;;;;;13.78;98.89;98795.59;1680434;83;21025;-73
2021/06/14 01:30:18;;;;;;;12.43;3.40;;;;;;;13.75;98.98;98788.03;1709969;83;21584;-73
2021/06/14 01:32:44;;;;;;;6.78;3.80;;;;;;;13.75;98.91;98794.92;1686094;83;20983;-73
2021/06/14 01:35:13;;;;;;;8.33;3.75;;;;;;;13.73;98.76;98800.00;1694773;83;21078;-74
2021/06/14 01:37:48;;;;;;;5.85;3.50;;;;;;;13.73;98.81;98801.38;1693138;83;20903;-73
2021/06/14 01:40:17;;;;;;;4.15;3.20;;;;;;;13.73;98.84;98798.61;1660364;83;21090;-73
2021/06/14 01:42:50;;;;;;;9.53;2.90;;;;;;;13.74;98.62;98803.55;1685287;83;21148;-73
2021/06/14 01:45:19;;;;;;;9.08;3.15;;;;;;;13.74;98.52;98805.73;1701804;83;21615;-73
2021/06/14 01:47:46;;;;;;;5.60;3.52;;;;;;;13.73;98.27;98795.86;1697250;83;21114;-73
2021/06/14 01:50:14;;;;;;;7.17;2.85;;;;;;;13.71;98.11;98802.31;1690408;83;20906;-73
2021/06/14 01:52:42;;;;;;;8.68;4.20;;;;;;;13.70;98.04;98799.91;1687515;83;21463;-73
2021/06/14 01:55:10;;;;;;;7.62;3.50;;;;;;;13.69;98.17;98802.44;1696320;83;21139;-73
2021/06/14 01:57:39;;;;;;;7.25;3.60;;;;;;;13.70;98.29;98804.84;1658509;84;21562;-73
2021/06/14 02:00:11;;;;;;;6.73;3.50;;;;;;;13.69;98.41;98797.72;1685979;83;21483;-73
2021/06/14 02:02:49;;;;;;;7.20;3.35;;;;;;;13.73;98.72;98797.81;1695096;83;21284;-73
2021/06/14 02:05:19;;;;;;;7.40;3.50;;;;;;;13.73;98.55;98802.75;1693360;84;20935;-73
2021/06/14 02:07:46;;;;;;;4.67;2.75;;;;;;;13.72;98.53;98805.87;1689234;83;21965;-73
2021/06/14 02:10:12;;;;;;;5.80;3.62;;;;;;;13.71;98.70;98805.06;1694302;83;20892;-73
2021/06/14 02:12:41;;;;;;;5.65;3.83;;;;;;;13.72;98.84;98799.77;1694188;83;20954;-73
2021/06/14 02:15:09;;;;;;;5.37;2.90;;;;;;;13.72;98.79;98805.29;1694194;83;20990;-73
2021/06/14 02:17:39;;;;;;;10.95;3.65;;;;;;;13.73;98.89;98806.09;1684606;83;20973;-72
2021/06/14 02:20:08;;;;;;;8.13;3.70;;;;;;;13.73;99.09;98807.47;1693112;83;21828;-72
2021/06/14 02:22:37;;;;;;;6.75;3.62;;;;;;;13.71;99.32;98803.69;1697598;83;20938;-73
2021/06/14 02:25:05;;;;;;;7.80;2.90;;;;;;;13.70;99.49;98810.36;1697978;83;20908;-73
2021/06/14 02:27:32;;;;;;;10.10;4.00;;;;;;;13.71;99.83;98809.20;1702159;83;21034;-73
2021/06/14 02:29:58;;;;;;;7.62;3.22;;;;;;;13.72;99.97;98817.70;1699600;83;21072;-73
2021/06/14 02:32:26;;;;;;;9.05;4.17;;;;;;;13.74;100.00;98822.28;1691293;83;21596;-73
2021/06/14 02:34:53;;;;;;;7.53;3.52;;;;;;;13.75;100.00;98820.33;1674950;83;21029;-73
2021/06/14 02:37:22;;;;;;;5.90;3.60;;;;;;;13.74;100.00;98831.14;1678235;83;21108;-73
2021/06/14 02:39:49;;;;;;;7.20;3.60;;;;;;;13.72;100.00;98831.49;1692616;83;21588;-73
2021/06/14 02:42:17;;;;;;;6.35;3.72;;;;;;;13.72;100.00;98827.94;1699060;83;20953;-73
2021/06/14 02:44:43;;;;;;;9.60;3.83;;;;;;;13.70;100.00;98824.15;1691643;83;21128;-73
2021/06/14 02:47:11;;;;;;;6.95;4.15;;;;;;;13.70;100.00;98827.48;1692320;83;21069;-73
2021/06/14 02:49:39;;;;;;;5.55;3.85;;;;;;;13.68;100.00;98825.66;1700338;83;21203;-73
2021/06/14 02:52:10;;;;;;;6.15;3.83;;;;;;;13.69;100.00;98832.20;1700982;83;20968;-73
2021/06/14 02:54:39;;;;;;;4.83;3.37;;;;;;;13.67;100.00;98827.61;1707078;83;21042;-73
2021/06/14 02:57:10;;;;;;;6.92;3.80;;;;;;;13.65;100.00;98832.68;1673527;84;21119;-73
2021/06/14 02:59:37;;;;;;;9.85;3.70;;;;;;;13.64;100.00;98837.97;1709168;83;21484;-73
2021/06/14 03:02:04;;;;;;;8.63;3.67;;;;;;;13.63;100.00;98830.85;1697672;83;20899;-73
2021/06/14 03:04:33;;;;;;;4.62;3.60;;;;;;;13.62;100.00;98830.62;1691414;83;21509;-73
2021/06/14 03:07:01;;;;;;;6.25;4.12;;;;;;;13.61;100.00;98826.27;1691078;83;21018;-73
2021/06/14 03:09:30;;;;;;;7.10;3.70;;;;;;;13.60;100.00;98827.42;1694781;83;21431;-73
2021/06/14 03:11:56;;;;;;;7.22;3.72;;;;;;;13.61;100.00;98834.54;1688637;83;21010;-73
2021/06/14 03:14:23;;;;;;;5.20;3.70;;;;;;;13.61;100.00;98823.51;1692162;83;20956;-73
2021/06/14 03:16:49;;;;;;;7.70;3.62;;;;;;;13.62;100.00;98831.20;1695539;82;21065;-73
2021/06/14 03:19:22;;;;;;;5.78;4.15;;;;;;;13.62;100.00;98841.66;1698683;83;20940;-73
2021/06/14 03:21:49;;;;;;;9.28;4.17;;;;;;;13.61;100.00;98838.67;1674745;83;21994;-73
2021/06/14 03:24:18;;;;;;;10.15;4.40;;;;;;;13.61;100.00;98846.15;1692684;83;20989;-73
2021/06/14 03:26:46;;;;;;;7.87;4.10;;;;;;;13.59;100.00;98842.36;1708928;83;21060;-73
2021/06/14 03:29:22;;;;;;;5.72;4.00;;;;;;;13.61;100.00;98851.09;1695783;83;20958;-73
2021/06/14 03:31:48;;;;;;;8.90;4.10;;;;;;;13.62;100.00;98845.80;1698673;83;21054;-73
2021/06/14 03:34:16;;;;;;;7.35;4.70;;;;;;;13.64;100.00;98849.58;1702090;83;21136;-73
2021/06/14 03:36:43;;;;;;;7.33;5.28;;;;;;;13.65;100.00;98850.61;1697287;83;20931;-73
2021/06/14 03:39:10;;;;;;;9.33;4.40;;;;;;;13.70;100.00;98856.45;1677577;84;20991;-72
2021/06/14 03:41:44;;;;;;;8.60;4.58;;;;;;;13.71;100.00;98853.33;1699245;83;21002;-73
2021/06/14 03:44:10;;;;;;;4.87;3.67;;;;;;;13.73;100.00;98846.89;1702402;83;21383;-74
2021/06/14 03:46:38;;;;;;;11.03;3.95;;;;;;;13.77;100.00;98849.16;1670051;83;21164;-73
2021/06/14 03:49:05;;;;;;;8.70;3.80;;;;;;;13.78;100.00;98848.01;1709436;83;21040;-74
2021/06/14 03:51:32;;;;;;;7.25;4.12;;;;;;;13.79;100.00;98848.81;1699549;83;20914;-74
2021/06/14 03:54:00;;;;;;;6.67;4.05;;;;;;;13.79;100.00;98849.61;1678405;83;21076;-74
2021/06/14 03:56:29;;;;;;;8.48;3.90;;;;;;;13.82;100.00;98861.89;1703430;83;21616;-74
2021/06/14 03:58:56;;;;;;;7.40;3.95;;;;;;;13.81;100.00;98852.02;1686737;83;21127;-74
2021/06/14 04:01:23;;;;;;;9.18;3.90;;;;;;;13.82;100.00;98859.94;1695934;83;20903;-74
2021/06/14 04:04:07;;;;;;;10.53;3.85;;;;;;;13.83;100.00;98857.41;1699107;83;20981;-73
2021/06/14 04:06:20;;;;;;;8.43;4.30;;;;;;;13.88;100.00;98859.08;1702524;84;21454;-73
2021/06/14 04:08:47;;;;;;;7.28;4.25;;;;;;;13.91;100.00;98861.70;1693614;83;21029;-72
2021/06/14 04:11:13;;;;;;;11.22;3.55;;;;;;;13.95;100.00;98865.36;1720290;82;21568;-73
2021/06/14 04:13:41;;;;;;;7.05;3.70;;;;;;;13.98;100.00;98866.03;1720625;82;21019;-71
2021/06/14 04:16:07;;;;;;;6.80;4.37;;;;;;;14.01;100.00;98865.32;1713146;81;21482;-71
2021/06/14 04:18:34;;;;;;;5.00;3.77;;;;;;;14.00;100.00;98870.04;1733009;82;20901;-71
2021/06/14 04:21:00;;;;;;;8.63;4.55;;;;;;;13.99;100.00;98868.44;1728662;82;20992;-73
2021/06/14 04:23:27;;;;;;;5.87;3.83;;;;;;;14.01;100.00;98868.08;1730419;81;21523;-72
2021/06/14 04:25:53;;;;;;;6.70;4.05;;;;;;;14.01;100.00;98873.02;1739542;82;20911;-71
2021/06/14 04:28:19;;;;;;;7.70;3.80;;;;;;;14.05;100.00;98879.44;1725040;82;20964;-71
2021/06/14 04:30:46;;;;;;;6.80;3.85;;;;;;;14.08;100.00;98873.78;1731476;82;21463;-71
2021/06/14 04:33:12;;;;;;;8.13;4.12;;;;;;;14.14;100.00;98877.88;1736393;82;20892;-70
2021/06/14 04:35:39;;;;;;;7.03;4.00;;;;;;;14.19;100.00;98883.14;1732584;81;22031;-71
2021/06/14 04:38:05;;;;;;;6.40;3.80;;;;;;;14.24;100.00;98889.78;1721266;82;20976;-71
2021/06/14 04:40:32;;;;;;;7.12;4.22;;;;;;;14.25;100.00;98891.38;1724637;82;20971;-71
2021/06/14 04:42:58;;;;;;;6.65;4.33;;;;;;;14.25;100.00;98894.14;1738124;81;20939;-69
2021/06/14 04:45:24;;;;;;;6.17;4.08;;;;;;;14.27;100.00;98898.73;1732924;82;20854;-70
2021/06/14 04:47:51;;;;;;;11.15;4.33;;;;;;;14.30;100.00;98904.92;1730677;82;21463;-70
2021/06/14 04:50:17;;;;;;;5.00;4.03;;;;;;;14.37;100.00;98908.44;1737858;81;21047;-71
2021/06/14 04:52:44;;;;;;;7.03;3.77;;;;;;;14.41;100.00;98911.55;1730039;82;21525;-73
2021/06/14 04:55:11;;;;;;;6.60;3.85;;;;;;;14.50;100.00;98915.48;1726434;82;20999;-69
2021/06/14 04:57:37;;;;;;;6.15;3.77;;;;;;;14.57;100.00;98910.72;1728640;82;21015;-69
2021/06/14 05:00:06;;;;;;;7.10;3.70;;;;;;;14.65;100.00;98907.77;1724764;82;21157;-69
2021/06/14 05:02:32;;;;;;;8.70;4.20;;;;;;;14.75;100.00;98912.75;1734216;82;20920;-70
2021/06/14 05:04:59;;;;;;;5.80;4.33;;;;;;;14.84;100.00;98913.36;1737463;81;20928;-73
2021/06/14 05:07:25;;;;;;;4.92;4.03;;;;;;;14.91;99.18;98906.40;1722974;81;21078;-73
2021/06/14 05:09:56;;;;;;;8.20;4.58;;;;;;;15.00;98.96;98916.67;1721109;82;21105;-70
2021/06/14 05:12:23;;;;;;;5.12;3.72;;;;;;;15.09;98.32;98913.91;1736010;82;21122;-72
2021/06/14 05:14:50;;;;;;;9.55;4.12;;;;;;;15.23;97.88;98912.04;1740203;82;20932;-76
2021/06/14 05:17:17;;;;;;;7.17;4.37;;;;;;;15.35;97.14;98924.35;1733254;82;20997;-76
2021/06/14 05:19:45;;;;;;;30.25;13.05;;;;;;;15.48;97.06;98927.78;1718725;82;21074;-75
2021/06/14 05:22:12;;;;;;;21.87;11.75;;;;;;;15.62;96.82;98934.20;1723091;82;21430;-76
2021/06/14 05:24:38;;;;;;;22.48;12.78;;;;;;;15.74;96.00;98930.70;1737065;81;21735;-85
2021/06/14 05:27:06;;;;;;;13.25;7.58;;;;;;;15.85;95.26;98926.19;1732828;81;21027;-85
2021/06/14 05:29:33;;;;;;;16.12;9.48;;;;;;;15.93;94.23;98930.48;1733630;80;21138;-74
2021/06/14 05:31:59;;;;;;;9.33;5.58;;;;;;;16.01;93.53;98934.41;1734896;82;20955;-75
2021/06/14 05:34:26;;;;;;;10.80;6.17;;;;;;;16.13;93.18;98938.98;1728199;82;21030;-76
2021/06/14 05:36:52;;;;;;;11.38;5.90;;;;;;;16.24;92.81;98937.17;1727498;82;21151;-80
2021/06/14 05:39:18;;;;;;;9.98;6.45;;;;;;;16.37;92.41;98937.22;1729215;82;20893;-72
2021/06/14 05:41:46;;;;;;;12.93;6.33;;;;;;;16.49;91.02;98938.42;1730333;82;21566;-71
2021/06/14 05:44:12;;;;;;;11.93;5.80;;;;;;;16.60;90.26;98935.84;1731102;82;21035;-74
2021/06/14 05:46:38;;;;;;;6.70;5.05;;;;;;;16.72;89.54;98932.10;1725747;82;21010;-72
2021/06/14 05:49:05;;;;;;;9.20;5.33;;;;;;;16.84;89.00;98940.98;1727370;82;21126;-73
2021/06/14 05:51:31;;;;;;;5.95;4.22;;;;;;;16.93;88.82;98945.47;1725145;82;21078;-72
2021/06/14 05:53:58;;;;;;;6.20;4.58;;;;;;;16.98;88.22;98954.86;1728829;82;21005;-74
2021/06/14 05:56:25;;;;;;;7.70;4.40;;;;;;;16.94;87.80;98954.80;1734084;81;20959;-76
2021/06/14 05:58:52;;;;;;;6.15;4.25;;;;;;;16.90;88.22;98965.63;1727536;82;20936;-73
2021/06/14 06:01:18;;;;;;;5.25;4.00;;;;;;;16.86;88.34;98960.02;1728524;82;21095;-72
2021/06/14 06:03:45;;;;;;;6.28;3.72;;;;;;;16.82;87.92;98966.89;1734707;81;20924;-73
2021/06/14 06:06:12;;;;;;;6.53;4.45;;;;;;;16.81;88.58;98965.88;1729361;81;21151;-69
2021/06/14 06:08:38;;;;;;;9.75;4.72;;;;;;;16.89;88.83;98966.20;1734603;81;20884;-70
2021/06/14 06:11:04;;;;;;;6.85;4.70;;;;;;;16.98;88.88;98963.98;1728908;82;22097;-70
2021/06/14 06:13:31;;;;;;;8.23;4.10;;;;;;;17.09;88.77;98964.95;1727028;81;21107;-68
2021/06/14 06:15:57;;;;;;;6.30;4.30;;;;;;;17.22;88.64;98970.28;1728951;82;20979;-69
2021/06/14 06:18:24;;;;;;;9.08;4.25;;;;;;;17.29;88.18;98967.61;1718785;82;20886;-70
2021/06/14 06:20:51;;;;;;;5.97;3.85;;;;;;;17.37;88.25;98973.45;1727407;81;20964;-70
2021/06/14 06:23:17;;;;;;;5.42;3.98;;;;;;;17.48;87.97;98974.40;1725540;82;21063;-70
2021/06/14 06:25:44;;;;;;;5.55;4.10;;;;;;;17.61;87.88;98975.77;1735969;82;21301;-69
2021/06/14 06:28:10;;;;;;;6.90;4.70;;;;;;;17.77;88.32;98979.78;1727217;82;20945;-70
2021/06/14 06:30:37;;;;;;;9.10;4.83;;;;;;;17.98;88.31;98988.34;1731019;81;21083;-70
2021/06/14 06:33:05;;;;;;;6.92;4.30;;;;;;;18.12;86.84;98983.55;1735365;82;20936;-69
2021/06/14 06:35:31;;;;;;;7.95;4.30;;;;;;;18.20;86.19;98994.95;1724214;82;21004;-69
2021/06/14 06:37:58;;;;;;;5.70;4.05;;;;;;;18.22;84.95;98993.98;1723003;82;21058;-69
2021/06/14 06:40:24;;;;;;;6.10;4.30;;;;;;;18.21;84.79;98990.20;1736088;82;20965;-69
2021/06/14 06:42:52;;;;;;;5.65;4.45;;;;;;;18.22;83.90;98991.20;1729718;81;20983;-70
2021/06/14 06:45:18;;;;;;;10.32;4.78;;;;;;;18.23;84.04;98987.25;1687402;82;20923;-70
2021/06/14 06:47:45;;;;;;;6.62;4.67;;;;;;;18.25;84.11;98987.67;1721004;82;21605;-69
2021/06/14 06:50:12;;;;;;;5.42;4.05;;;;;;;18.27;84.39;98993.64;1734640;81;21423;-69
2021/06/14 06:52:39;;;;;;;7.55;4.65;;;;;;;18.27;84.21;98992.84;1716733;82;21026;-70
2021/06/14 06:55:11;;;;;;;5.67;4.37;;;;;;;18.26;84.25;99006.52;1716891;82;21479;-70
2021/06/14 06:57:38;;;;;;;;;;;;;;;18.24;83.88;99001.34;1722228;82;21039;-70
2021/06/14 07:00:07;;;;;;;8.48;4.50;;;;;;;18.20;84.16;98997.73;1737230;82;20147;-70
2021/06/14 07:02:34;;;;;;;6.87;4.75;;;;;;;18.29;84.89;99003.78;1671333;83;21106;-71
2021/06/14 07:05:00;;;;;;;6.97;5.08;;;;;;;18.50;85.68;99005.97;1709801;82;21062;-70
2021/06/14 07:07:26;;;;;;;6.30;4.47;;;;;;;18.78;84.23;98999.92;1715054;82;21008;-70
2021/06/14 07:09:53;;;;;;;6.75;3.90;;;;;;;18.96;83.47;99005.05;1708336;83;21051;-69
2021/06/14 07:12:19;;;;;;;8.35;3.87;;;;;;;19.09;82.21;99009.69;1718389;82;21535;-70
2021/06/14 07:14:45;;;;;;;8.63;3.90;;;;;;;19.19;81.25;99013.74;1722824;82;21141;-70
2021/06/14 07:17:12;;;;;;;7.60;4.15;;;;;;;19.23;79.65;99012.58;1699219;82;20999;-70
2021/06/14 07:19:40;;;;;;;7.53;4.47;;;;;;;19.26;79.53;99017.97;1715833;82;21593;-70
2021/06/14 07:22:06;;;;;;;4.80;3.92;;;;;;;19.27;80.26;99019.56;1722506;82;21527;-70
2021/06/14 07:24:33;;;;;;;8.50;4.60;;;;;;;19.27;79.47;99022.35;1736762;82;20889;-70
2021/06/14 07:26:59;;;;;;;5.30;4.25;;;;;;;19.21;79.68;99021.91;1730188;81;21058;-69
2021/06/14 07:29:28;;;;;;;4.75;3.95;;;;;;;19.20;79.89;99024.48;1717606;82;21027;-69
2021/06/14 07:31:57;;;;;;;6.20;4.22;;;;;;;19.28;79.78;99033.09;1721239;82;20989;-69
2021/06/14 07:34:23;;;;;;;5.30;3.77;;;;;;;19.57;81.51;99030.55;1728820;81;20959;-70
2021/06/14 07:36:49;;;;;;;7.45;4.00;;;;;;;19.98;80.22;99028.36;1729425;81;20916;-70
2021/06/14 07:39:17;;;;;;;5.50;4.00;;;;;;;20.26;80.03;99037.41;1718219;81;21146;-70
2021/06/14 07:41:43;;;;;;;5.97;3.62;;;;;;;20.44;76.90;99041.88;1694291;82;20904;-68
2021/06/14 07:44:09;;;;;;;6.97;3.72;;;;;;;20.54;76.42;99043.70;1740653;82;21475;-70
2021/06/14 07:46:36;;;;;;;4.45;3.45;;;;;;;20.68;77.14;99050.71;1721934;82;21113;-70
2021/06/14 07:49:02;;;;;;;7.03;3.60;;;;;;;20.80;76.75;99050.94;1726921;82;20977;-72
2021/06/14 07:51:30;;;;;;;8.48;3.95;;;;;;;20.83;76.32;99050.91;1735692;82;21056;-72
2021/06/14 07:53:56;;;;;;;6.60;4.33;;;;;;;20.80;75.76;99054.49;1732119;82;20975;-73
2021/06/14 07:56:23;;;;;;;8.48;3.65;;;;;;;20.81;75.15;99057.48;1723927;81;21141;-73
2021/06/14 07:58:50;;;;;;;5.15;3.33;;;;;;;20.79;73.93;99062.69;1727055;82;21542;-71
2021/06/14 08:01:17;;;;;;;5.45;3.70;;;;;;;20.70;74.49;99062.27;1730060;82;21080;-72
2021/06/14 08:03:47;;;;;;;5.17;3.55;;;;;;;20.64;74.76;99060.46;1726572;81;21047;-72
2021/06/14 08:06:12;;;;;;;10.00;4.00;;;;;;;20.62;74.18;99064.84;1734177;81;21597;-72
2021/06/14 08:08:38;;;;;;;4.67;3.90;;;;;;;20.64;73.43;99062.45;1725082;82;20964;-73
2021/06/14 08:11:07;;;;;;;8.30;3.80;;;;;;;20.87;77.12;99071.24;1729560;82;20971;-72
2021/06/14 08:13:34;;;;;;;4.67;3.77;;;;;;;21.14;75.19;99070.87;1721554;82;21042;-72
2021/06/14 08:16:01;;;;;;;4.05;3.65;;;;;;;21.23;74.42;99072.71;1728211;82;21154;-72
2021/06/14 08:18:36;;;;;;;5.62;3.77;;;;;;;21.42;74.32;99079.27;1738430;82;20876;-72
2021/06/14 08:21:26;;;;;;;5.85;3.90;;;;;;;21.43;72.27;99080.26;1734101;81;20970;-72
2021/06/14 08:26:28;;;;;;;3.67;3.30;;;;;;;21.14;73.85;99096.00;1725889;82;21048;-75
2021/06/14 08:28:57;;;;;;;8.58;4.60;;;;;;;21.07;73.83;99091.20;1727472;82;21896;-74
2021/06/14 08:31:25;;;;;;;6.83;3.90;;;;;;;20.97;73.75;99097.56;1694691;82;21488;-73
2021/06/14 08:33:51;;;;;;;3.77;3.47;;;;;;;20.84;74.17;99090.16;1718519;81;20857;-73
2021/06/14 08:36:18;;;;;;;5.25;3.95;;;;;;;20.76;74.82;99096.35;1712144;82;21488;-74
2021/06/14 08:38:47;;;;;;;16.55;4.67;;;;;;;20.74;74.58;99102.13;1708396;83;21038;-72
2021/06/14 08:41:16;;;;;;;5.33;3.72;;;;;;;20.72;74.80;99104.51;1728763;82;21503;-72
2021/06/14 08:43:45;;;;;;;3.55;3.00;;;;;;;20.71;75.46;99109.29;1725311;81;20880;-72
2021/06/14 08:46:12;;;;;;;8.08;3.65;;;;;;;20.73;73.94;99111.69;1702826;82;20930;-73
2021/06/14 08:48:41;;;;;;;4.95;3.72;;;;;;;20.70;74.42;99115.26;1719446;82;21068;-74
2021/06/14 08:51:11;;;;;;;15.10;4.53;;;;;;;20.78;76.21;99116.08;1722694;81;20948;-73
2021/06/14 08:53:38;;;;;;;4.12;3.72;;;;;;;21.14;76.29;99116.33;1732769;81;21953;-73
2021/06/14 08:56:05;;;;;;;5.37;3.98;;;;;;;21.67;74.23;99118.34;1724759;81;20908;-85
2021/06/14 08:58:32;;;;;;;5.67;4.40;;;;;;;22.21;73.28;99113.46;1726486;82;21003;-75
2021/06/14 09:01:00;;;;;;;4.97;4.37;;;;;;;22.81;71.74;99118.81;1738900;82;21043;-72
2021/06/14 09:03:26;;;;;;;6.22;4.15;;;;;;;23.38;69.65;99121.22;1735793;81;21566;-75
2021/06/14 09:05:53;;;;;;;7.75;4.47;;;;;;;23.60;66.16;99128.27;1728605;81;21897;-73
2021/06/14 09:08:22;;;;;;;4.12;3.72;;;;;;;23.48;64.37;99131.54;1698999;83;20984;-74
2021/06/14 09:10:47;;;;;;;6.40;4.20;;;;;;;23.17;64.18;99131.16;1715616;82;20955;-75
2021/06/14 09:13:28;;;;;;;4.87;4.37;;;;;;;22.79;64.83;99135.20;1727254;81;21490;-75
2021/06/14 09:16:00;;;;;;;8.83;5.03;;;;;;;22.48;66.24;99134.75;1714031;82;22004;-73
2021/06/14 09:18:27;;;;;;;;;;;;;;;22.28;67.06;99141.40;1729247;82;21660;-73
2021/06/14 09:21:07;;;;;;;5.92;5.20;;;;;;;22.20;67.83;99139.83;1731294;82;20098;-74
2021/06/14 09:23:47;;;;;;;7.60;4.78;;;;;;;22.25;68.30;99133.22;1735686;81;21004;-74
2021/06/14 09:26:41;;;;;;;8.35;4.55;;;;;;;22.36;68.72;99131.19;1718096;82;21105;-72
2021/06/14 09:29:13;;;;;;;5.60;4.45;;;;;;;22.44;68.59;99140.35;1734046;82;20856;-72
2021/06/14 09:31:51;;;;;;;5.95;4.62;;;;;;;22.53;68.66;99136.49;1735882;82;21127;-73
2021/06/14 09:34:18;;;;;;;6.90;4.08;;;;;;;22.86;69.42;99133.77;1735275;82;21079;-74
2021/06/14 09:36:57;;;;;;;4.35;3.92;;;;;;;23.30;68.82;99136.48;1728234;81;20994;-74
2021/06/14 09:39:23;;;;;;;7.53;3.85;;;;;;;23.60;65.58;99138.68;1717793;82;20960;-73
2021/06/14 09:41:52;;;;;;;4.53;4.00;;;;;;;23.64;65.07;99139.45;1728752;83;20988;-72
2021/06/14 09:44:30;;;;;;;4.12;3.72;;;;;;;23.61;65.86;99134.67;1724866;82;21099;-71
2021/06/14 09:47:08;;;;;;;5.37;3.52;;;;;;;23.74;64.99;99139.93;1729958;82;20931;-72
2021/06/14 09:49:35;;;;;;;5.35;3.55;;;;;;;23.79;63.99;99139.48;1715716;82;20959;-70
2021/06/14 09:52:02;;;;;;;6.50;3.35;;;;;;;23.67;63.78;99141.42;1730839;82;20921;-73
2021/06/14 09:54:31;;;;;;;4.05;3.37;;;;;;;23.55;63.92;99144.73;1734163;82;21420;-71
2021/06/14 09:56:59;;;;;;;5.85;3.90;;;;;;;23.36;64.19;99142.63;1727025;82;21137;-71
2021/06/14 09:59:27;;;;;;;4.22;3.83;;;;;;;23.30;64.21;99142.08;1718895;82;21497;-72
2021/06/14 10:02:18;;;;;;;3.85;3.55;;;;;;;23.54;61.54;99137.53;1709650;82;21451;-71
2021/06/14 10:04:47;;;;;;;6.20;3.90;;;;;;;23.87;60.86;99139.61;1712931;82;20967;-73
2021/06/14 10:07:16;;;;;;;8.53;4.65;;;;;;;24.17;61.07;99138.91;1724951;82;21103;-72
2021/06/14 10:09:49;;;;;;;4.58;3.62;;;;;;;24.21;60.10;99147.29;1736257;82;21144;-72
2021/06/14 10:12:27;;;;;;;5.58;3.70;;;;;;;24.39;60.14;99145.09;1732461;82;21073;-72
2021/06/14 10:14:59;;;;;;;6.53;4.53;;;;;;;24.69;60.68;99134.50;1712125;82;20971;-71
2021/06/14 10:17:41;;;;;;;;;;;;;;;24.68;58.90;99144.94;1714355;82;20978;-72
2021/06/14 10:20:17;;;;;;;8.68;4.75;;;;;;;24.57;59.72;99148.48;1726339;82;20087;-72
2021/06/14 10:22:46;;;;;;;9.10;4.40;;;;;;;24.72;61.14;99143.48;1717170;82;21813;-71
2021/06/14 10:25:16;;;;;;;5.85;4.30;;;;;;;25.08;60.00;99143.01;1716347;82;20934;-72
2021/06/14 10:27:42;;;;;;;6.08;4.20;;;;;;;25.28;59.46;99142.52;1715301;82;21443;-73
2021/06/14 10:30:12;;;;;;;5.00;4.05;;;;;;;25.39;57.64;99135.33;1728409;82;20978;-72
2021/06/14 10:32:41;;;;;;;4.78;3.50;;;;;;;25.26;57.44;99133.71;1726245;81;21647;-72
2021/06/14 10:35:09;;;;;;;4.33;3.37;;;;;;;25.15;57.81;99140.89;1711253;81;21137;-73
2021/06/14 10:37:43;;;;;;;5.90;4.20;;;;;;;25.05;57.82;99136.83;1725745;81;21087;-71
2021/06/14 10:40:14;;;;;;;4.30;3.35;;;;;;;24.85;58.19;99147.91;1729640;82;21051;-72
2021/06/14 10:42:41;;;;;;;4.47;3.83;;;;;;;24.59;58.25;99150.87;1722829;81;21055;-72
2021/06/14 10:45:09;;;;;;;7.58;3.65;;;;;;;24.56;59.42;99144.69;1733091;82;21558;-73
2021/06/14 10:47:36;;;;;;;4.62;4.03;;;;;;;24.68;59.61;99135.72;1734442;82;21807;-72
2021/06/14 10:50:03;;;;;;;4.97;3.35;;;;;;;25.03;61.14;99135.06;1726634;82;21047;-73
2021/06/14 10:52:43;;;;;;;4.37;3.35;;;;;;;25.49;59.08;99128.71;1723727;81;21059;-73
2021/06/14 10:55:17;;;;;;;4.03;3.10;;;;;;;26.03;58.32;99132.80;1707489;81;20963;-72
2021/06/14 10:57:44;;;;;;;4.15;3.15;;;;;;;26.53;55.95;99134.08;1741571;81;21082;-70
2021/06/14 11:00:31;;;;;;;3.20;2.90;;;;;;;26.63;52.75;99134.44;1737031;82;21478;-76
2021/06/14 11:03:05;;;;;;;4.72;2.90;;;;;;;26.38;53.11;99139.81;1719333;81;21078;-74
2021/06/14 11:05:46;;;;;;;7.08;3.30;;;;;;;26.04;54.53;99145.03;1706926;82;20979;-76
2021/06/14 11:08:20;;;;;;;6.17;2.70;;;;;;;25.94;54.78;99145.44;1697115;82;21101;-74
2021/06/14 11:11:07;;;;;;;3.55;2.60;;;;;;;25.88;53.06;99139.33;1706763;83;21529;-74
2021/06/14 11:13:48;;;;;;;4.58;3.00;;;;;;;25.88;54.62;99138.72;1697138;83;20916;-72
2021/06/14 11:16:15;;;;;;;4.45;3.02;;;;;;;25.85;53.19;99129.73;1693190;82;20982;-75
2021/06/14 11:18:42;;;;;;;3.42;3.08;;;;;;;25.63;53.32;99139.11;1727551;82;20962;-74
2021/06/14 11:21:14;;;;;;;4.20;3.12;;;;;;;25.27;55.50;99150.75;1731987;82;21457;-71
2021/06/14 11:23:42;;;;;;;3.58;2.65;;;;;;;24.81;56.57;99138.16;1716640;82;20972;-68
2021/06/14 11:26:11;;;;;;;4.60;3.37;;;;;;;24.33;58.49;99137.73;1722278;82;21099;-76
2021/06/14 11:28:41;;;;;;;5.78;3.20;;;;;;;24.14;60.14;99136.15;1736141;82;21517;-77
2021/06/14 11:31:21;;;;;;;5.05;2.37;;;;;;;24.39;62.67;99133.87;1729572;80;21008;-82
2021/06/14 11:33:48;;;;;;;4.40;2.92;;;;;;;24.97;60.76;99126.31;1746274;81;21592;-70
2021/06/14 11:36:29;;;;;;;3.62;2.98;;;;;;;25.67;57.27;99119.41;1724702;82;21007;-70
2021/06/14 11:38:58;;;;;;;6.53;2.92;;;;;;;26.24;55.29;99128.19;1717439;82;21770;-70
2021/06/14 11:41:34;;;;;;;4.08;2.83;;;;;;;26.62;56.10;99131.45;1727946;80;20968;-75
2021/06/14 11:44:28;;;;;;;2.95;2.60;;;;;;;26.71;53.88;99136.50;1720227;81;20951;-83